sensor_id;sensor_type;location;lat;lon;timestamp;pressure;altitude;pressure_sealevel;temperature;humidity
70229;BME280;57617;51.988;5.854;2023-06-04T00:01:38;101736.09;;;18.73;41.23
70229;BME280;57617;51.988;5.854;2023-06-04T00:04:04;101730.88;;;18.72;41.14
70229;BME280;57617;51.988;5.854;2023-06-04T00:06:29;101732.78;;;18.66;41.06
70229;BME280;57617;51.988;5.854;2023-06-04T00:08:54;101728.09;;;18.62;41.79
70229;BME280;57617;51.988;5.854;2023-06-04T00:11:20;101734.69;;;18.61;41.23
70229;BME280;57617;51.988;5.854;2023-06-04T00:13:45;101722.56;;;18.52;41.66
70229;BME280;57617;51.988;5.854;2023-06-04T00:16:10;101728.34;;;18.55;41.43
70229;BME280;57617;51.988;5.854;2023-06-04T00:18:36;101717.31;;;18.45;41.77
70229;BME280;57617;51.988;5.854;2023-06-04T00:21:01;101730.53;;;18.48;41.56
70229;BME280;57617;51.988;5.854;2023-06-04T00:23:26;101725.56;;;18.45;41.84
70229;BME280;57617;51.988;5.854;2023-06-04T00:25:52;101727.47;;;18.40;42.07
70229;BME280;57617;51.988;5.854;2023-06-04T00:28:17;101722.22;;;18.38;41.90
70229;BME280;57617;51.988;5.854;2023-06-04T00:30:42;101726.09;;;18.37;41.56
70229;BME280;57617;51.988;5.854;2023-06-04T00:33:07;101722.47;;;18.32;42.02
70229;BME280;57617;51.988;5.854;2023-06-04T00:35:33;101738.97;;;18.32;41.90
70229;BME280;57617;51.988;5.854;2023-06-04T00:37:58;101731.25;;;18.28;41.87
70229;BME280;57617;51.988;5.854;2023-06-04T00:40:23;101736.47;;;18.25;42.17
70229;BME280;57617;51.988;5.854;2023-06-04T00:42:49;101739.75;;;18.27;41.94
70229;BME280;57617;51.988;5.854;2023-06-04T00:45:14;101743.06;;;18.24;41.65
70229;BME280;57617;51.988;5.854;2023-06-04T00:47:41;101744.97;;;18.18;41.83
70229;BME280;57617;51.988;5.854;2023-06-04T00:50:06;101738.06;;;18.16;41.94
70229;BME280;57617;51.988;5.854;2023-06-04T00:52:33;101737.53;;;18.14;41.98
70229;BME280;57617;51.988;5.854;2023-06-04T00:54:58;101729.53;;;18.13;41.92
70229;BME280;57617;51.988;5.854;2023-06-04T00:57:24;101734.50;;;18.11;41.91
70229;BME280;57617;51.988;5.854;2023-06-04T00:59:49;101730.63;;;18.07;42.15
70229;BME280;57617;51.988;5.854;2023-06-04T01:02:21;101731.41;;;18.02;42.46
70229;BME280;57617;51.988;5.854;2023-06-04T01:04:56;101735.50;;;17.99;42.45
70229;BME280;57617;51.988;5.854;2023-06-04T01:07:26;101727.22;;;17.90;42.07
70229;BME280;57617;51.988;5.854;2023-06-04T01:09:53;101723.34;;;17.86;42.20
70229;BME280;57617;51.988;5.854;2023-06-04T01:12:18;101726.09;;;17.86;42.16
70229;BME280;57617;51.988;5.854;2023-06-04T01:14:43;101718.94;;;17.80;42.11
70229;BME280;57617;51.988;5.854;2023-06-04T01:17:35;101729.59;;;17.76;43.13
70229;BME280;57617;51.988;5.854;2023-06-04T01:20:26;101734.00;;;17.72;42.65
70229;BME280;57617;51.988;5.854;2023-06-04T01:22:56;101736.41;;;17.68;42.27
70229;BME280;57617;51.988;5.854;2023-06-04T01:25:34;101724.38;;;17.70;42.78
70229;BME280;57617;51.988;5.854;2023-06-04T01:28:04;101725.13;;;17.65;42.49
70229;BME280;57617;51.988;5.854;2023-06-04T01:30:39;101725.13;;;17.65;42.81
70229;BME280;57617;51.988;5.854;2023-06-04T01:33:09;101732.84;;;17.63;42.27
70229;BME280;57617;51.988;5.854;2023-06-04T01:35:35;101726.50;;;17.63;42.19
70229;BME280;57617;51.988;5.854;2023-06-04T01:38:00;101728.69;;;17.61;42.10
70229;BME280;57617;51.988;5.854;2023-06-04T01:40:26;101732.78;;;17.58;42.32
70229;BME280;57617;51.988;5.854;2023-06-04T01:42:52;101728.06;;;17.53;42.43
70229;BME280;57617;51.988;5.854;2023-06-04T01:45:17;101727.53;;;17.52;42.31
70229;BME280;57617;51.988;5.854;2023-06-04T01:47:43;101728.63;;;17.51;42.33
70229;BME280;57617;51.988;5.854;2023-06-04T01:50:08;101722.25;;;17.45;42.44
70229;BME280;57617;51.988;5.854;2023-06-04T01:52:37;101720.56;;;17.39;42.59
70229;BME280;57617;51.988;5.854;2023-06-04T01:55:07;101725.53;;;17.42;42.66
70229;BME280;57617;51.988;5.854;2023-06-04T01:57:34;101727.44;;;17.42;42.54
70229;BME280;57617;51.988;5.854;2023-06-04T02:00:00;101714.56;;;17.42;42.39
70229;BME280;57617;51.988;5.854;2023-06-04T02:02:26;101719.13;;;17.36;42.46
70229;BME280;57617;51.988;5.854;2023-06-04T02:04:51;101730.13;;;17.36;42.54
70229;BME280;57617;51.988;5.854;2023-06-04T02:07:18;101715.59;;;17.36;42.57
70229;BME280;57617;51.988;5.854;2023-06-04T02:09:46;101721.34;;;17.34;42.53
70229;BME280;57617;51.988;5.854;2023-06-04T02:12:11;101719.66;;;17.28;42.84
70229;BME280;57617;51.988;5.854;2023-06-04T02:14:37;101724.00;;;17.24;42.75
70229;BME280;57617;51.988;5.854;2023-06-04T02:17:03;101728.09;;;17.22;42.82
70229;BME280;57617;51.988;5.854;2023-06-04T02:19:29;101717.06;;;17.17;42.79
70229;BME280;57617;51.988;5.854;2023-06-04T02:21:55;101712.09;;;17.14;42.79
70229;BME280;57617;51.988;5.854;2023-06-04T02:24:20;101715.94;;;17.13;42.99
70229;BME280;57617;51.988;5.854;2023-06-04T02:26:46;101719.50;;;17.13;42.89
70229;BME280;57617;51.988;5.854;2023-06-04T02:29:11;101722.78;;;17.10;43.04
70229;BME280;57617;51.988;5.854;2023-06-04T02:31:37;101720.53;;;17.07;43.08
70229;BME280;57617;51.988;5.854;2023-06-04T02:34:02;101716.97;;;17.07;42.84
70229;BME280;57617;51.988;5.854;2023-06-04T02:36:29;101719.72;;;17.07;42.93
70229;BME280;57617;51.988;5.854;2023-06-04T02:38:54;101717.50;;;17.04;43.12
70229;BME280;57617;51.988;5.854;2023-06-04T02:41:21;101713.63;;;17.00;43.17
70229;BME280;57617;51.988;5.854;2023-06-04T02:43:46;101718.53;;;16.98;43.20
70229;BME280;57617;51.988;5.854;2023-06-04T02:46:11;101717.97;;;16.96;43.19
70229;BME280;57617;51.988;5.854;2023-06-04T02:48:37;101719.03;;;16.90;43.26
70229;BME280;57617;51.988;5.854;2023-06-04T02:51:02;101715.41;;;16.84;43.32
70229;BME280;57617;51.988;5.854;2023-06-04T02:53:27;101722.47;;;16.80;43.53
70229;BME280;57617;51.988;5.854;2023-06-04T02:55:53;101718.94;;;16.80;43.54
70229;BME280;57617;51.988;5.854;2023-06-04T02:58:18;101718.09;;;16.79;43.82
70229;BME280;57617;51.988;5.854;2023-06-04T03:00:44;101715.28;;;16.74;43.88
70229;BME280;57617;51.988;5.854;2023-06-04T03:03:10;101703.72;;;16.67;43.79
70229;BME280;57617;51.988;5.854;2023-06-04T03:05:35;101715.00;;;16.71;43.71
70229;BME280;57617;51.988;5.854;2023-06-04T03:08:02;101716.34;;;16.68;43.87
70229;BME280;57617;51.988;5.854;2023-06-04T03:10:28;101712.75;;;16.68;43.82
70229;BME280;57617;51.988;5.854;2023-06-04T03:12:54;101717.94;;;16.64;44.05
70229;BME280;57617;51.988;5.854;2023-06-04T03:15:19;101709.16;;;16.63;43.86
70229;BME280;57617;51.988;5.854;2023-06-04T03:17:45;101712.97;;;16.62;44.00
70229;BME280;57617;51.988;5.854;2023-06-04T03:20:10;101714.03;;;16.60;43.93
70229;BME280;57617;51.988;5.854;2023-06-04T03:22:36;101713.22;;;16.60;44.20
70229;BME280;57617;51.988;5.854;2023-06-04T03:25:02;101706.84;;;16.54;44.17
70229;BME280;57617;51.988;5.854;2023-06-04T03:27:29;101717.31;;;16.58;44.36
70229;BME280;57617;51.988;5.854;2023-06-04T03:29:55;101711.78;;;16.52;44.25
70229;BME280;57617;51.988;5.854;2023-06-04T03:32:20;101701.84;;;16.47;44.41
70229;BME280;57617;51.988;5.854;2023-06-04T03:34:45;101710.81;;;16.42;44.76
70229;BME280;57617;51.988;5.854;2023-06-04T03:37:11;101709.91;;;16.36;44.59
70229;BME280;57617;51.988;5.854;2023-06-04T03:39:36;101712.59;;;16.31;44.84
70229;BME280;57617;51.988;5.854;2023-06-04T03:42:01;101720.31;;;16.34;44.83
70229;BME280;57617;51.988;5.854;2023-06-04T03:44:27;101709.09;;;16.36;45.16
70229;BME280;57617;51.988;5.854;2023-06-04T03:46:52;101713.16;;;16.33;44.86
70229;BME280;57617;51.988;5.854;2023-06-04T03:49:18;101717.25;;;16.31;45.10
70229;BME280;57617;51.988;5.854;2023-06-04T03:51:44;101711.44;;;16.27;45.12
70229;BME280;57617;51.988;5.854;2023-06-04T03:54:10;101715.78;;;16.23;45.06
70229;BME280;57617;51.988;5.854;2023-06-04T03:56:35;101721.25;;;16.23;45.32
70229;BME280;57617;51.988;5.854;2023-06-04T03:59:00;101716.63;;;16.24;45.39
70229;BME280;57617;51.988;5.854;2023-06-04T04:01:26;101715.53;;;16.25;45.43
70229;BME280;57617;51.988;5.854;2023-06-04T04:03:52;101725.16;;;16.27;45.49
70229;BME280;57617;51.988;5.854;2023-06-04T04:06:18;101720.78;;;16.26;45.58
70229;BME280;57617;51.988;5.854;2023-06-04T04:08:44;101724.00;;;16.23;45.43
70229;BME280;57617;51.988;5.854;2023-06-04T04:11:13;101718.78;;;16.22;46.13
70229;BME280;57617;51.988;5.854;2023-06-04T04:13:39;101720.72;;;16.21;45.74
70229;BME280;57617;51.988;5.854;2023-06-04T04:16:04;101730.03;;;16.20;45.71
70229;BME280;57617;51.988;5.854;2023-06-04T04:18:34;101725.09;;;16.22;46.20
70229;BME280;57617;51.988;5.854;2023-06-04T04:21:00;101743.19;;;16.23;45.98
70229;BME280;57617;51.988;5.854;2023-06-04T04:23:25;101735.81;;;16.24;45.90
70229;BME280;57617;51.988;5.854;2023-06-04T04:25:52;101736.06;;;16.22;45.81
70229;BME280;57617;51.988;5.854;2023-06-04T04:28:18;101737.41;;;16.20;46.23
70229;BME280;57617;51.988;5.854;2023-06-04T04:30:44;101726.13;;;16.16;46.27
70229;BME280;57617;51.988;5.854;2023-06-04T04:33:09;101725.28;;;16.16;46.47
70229;BME280;57617;51.988;5.854;2023-06-04T04:35:36;101731.59;;;16.16;46.63
70229;BME280;57617;51.988;5.854;2023-06-04T04:38:02;101725.03;;;16.17;46.58
70229;BME280;57617;51.988;5.854;2023-06-04T04:40:29;101730.59;;;16.22;46.62
70229;BME280;57617;51.988;5.854;2023-06-04T04:42:54;101732.00;;;16.25;46.77
70229;BME280;57617;51.988;5.854;2023-06-04T04:45:20;101727.84;;;16.22;47.04
70229;BME280;57617;51.988;5.854;2023-06-04T04:47:46;101732.53;;;16.27;46.82
70229;BME280;57617;51.988;5.854;2023-06-04T04:50:12;101720.44;;;16.23;46.87
70229;BME280;57617;51.988;5.854;2023-06-04T04:52:37;101726.31;;;16.31;46.43
70229;BME280;57617;51.988;5.854;2023-06-04T04:55:03;101733.19;;;16.34;46.96
70229;BME280;57617;51.988;5.854;2023-06-04T04:57:29;101729.94;;;16.37;47.06
70229;BME280;57617;51.988;5.854;2023-06-04T04:59:54;101713.41;;;16.32;47.11
70229;BME280;57617;51.988;5.854;2023-06-04T05:02:19;101728.03;;;16.37;47.27
70229;BME280;57617;51.988;5.854;2023-06-04T05:04:45;101731.38;;;16.39;47.19
70229;BME280;57617;51.988;5.854;2023-06-04T05:07:10;101730.28;;;16.40;47.28
70229;BME280;57617;51.988;5.854;2023-06-04T05:09:35;101724.78;;;16.40;47.51
70229;BME280;57617;51.988;5.854;2023-06-04T05:12:01;101731.16;;;16.46;47.56
70229;BME280;57617;51.988;5.854;2023-06-04T05:14:26;101717.47;;;16.46;47.39
70229;BME280;57617;51.988;5.854;2023-06-04T05:16:52;101734.59;;;16.58;47.52
70229;BME280;57617;51.988;5.854;2023-06-04T05:19:17;101727.50;;;16.62;47.37
70229;BME280;57617;51.988;5.854;2023-06-04T05:21:42;101730.06;;;16.68;47.42
70229;BME280;57617;51.988;5.854;2023-06-04T05:24:09;101727.09;;;16.75;47.50
70229;BME280;57617;51.988;5.854;2023-06-04T05:26:35;101725.22;;;16.80;47.51
70229;BME280;57617;51.988;5.854;2023-06-04T05:29:01;101718.41;;;16.83;47.55
70229;BME280;57617;51.988;5.854;2023-06-04T05:31:27;101723.13;;;16.88;47.49
70229;BME280;57617;51.988;5.854;2023-06-04T05:33:52;101725.06;;;16.92;47.52
70229;BME280;57617;51.988;5.854;2023-06-04T05:36:17;101725.13;;;16.97;47.53
70229;BME280;57617;51.988;5.854;2023-06-04T05:38:43;101728.16;;;17.00;47.46
70229;BME280;57617;51.988;5.854;2023-06-04T05:41:08;101728.78;;;17.07;47.34
70229;BME280;57617;51.988;5.854;2023-06-04T05:43:33;101718.13;;;17.11;47.31
70229;BME280;57617;51.988;5.854;2023-06-04T05:45:59;101729.66;;;17.13;47.61
70229;BME280;57617;51.988;5.854;2023-06-04T05:48:24;101722.31;;;17.18;47.65
70229;BME280;57617;51.988;5.854;2023-06-04T05:50:50;101724.25;;;17.23;47.49
70229;BME280;57617;51.988;5.854;2023-06-04T05:53:15;101721.28;;;17.29;47.60
70229;BME280;57617;51.988;5.854;2023-06-04T05:55:41;101726.81;;;17.34;47.38
70229;BME280;57617;51.988;5.854;2023-06-04T05:58:06;101735.13;;;17.40;47.25
70229;BME280;57617;51.988;5.854;2023-06-04T06:00:31;101724.75;;;17.47;47.53
70229;BME280;57617;51.988;5.854;2023-06-04T06:02:57;101738.25;;;17.53;47.29
70229;BME280;57617;51.988;5.854;2023-06-04T06:05:22;101741.84;;;17.58;47.41
70229;BME280;57617;51.988;5.854;2023-06-04T06:07:47;101737.75;;;17.61;47.17
70229;BME280;57617;51.988;5.854;2023-06-04T06:10:13;101744.13;;;17.67;47.38
70229;BME280;57617;51.988;5.854;2023-06-04T06:12:39;101743.28;;;17.66;47.02
70229;BME280;57617;51.988;5.854;2023-06-04T06:15:05;101745.75;;;17.67;47.26
70229;BME280;57617;51.988;5.854;2023-06-04T06:17:30;101744.41;;;17.70;47.51
70229;BME280;57617;51.988;5.854;2023-06-04T06:19:56;101721.25;;;17.61;47.32
70229;BME280;57617;51.988;5.854;2023-06-04T06:22:22;101747.44;;;17.73;46.98
70229;BME280;57617;51.988;5.854;2023-06-04T06:24:47;101741.75;;;17.85;47.44
70229;BME280;57617;51.988;5.854;2023-06-04T06:27:16;101747.28;;;17.90;47.43
70229;BME280;57617;51.988;5.854;2023-06-04T06:29:42;101736.56;;;17.88;47.33
70229;BME280;57617;51.988;5.854;2023-06-04T06:32:08;101740.19;;;17.99;47.34
70229;BME280;57617;51.988;5.854;2023-06-04T06:34:33;101745.13;;;18.02;47.10
70229;BME280;57617;51.988;5.854;2023-06-04T06:36:58;101750.41;;;18.08;46.84
70229;BME280;57617;51.988;5.854;2023-06-04T06:39:24;101752.63;;;18.12;47.06
70229;BME280;57617;51.988;5.854;2023-06-04T06:41:49;101755.66;;;18.15;46.66
70229;BME280;57617;51.988;5.854;2023-06-04T06:44:14;101758.97;;;18.17;46.75
70229;BME280;57617;51.988;5.854;2023-06-04T06:46:40;101751.59;;;18.23;46.34
70229;BME280;57617;51.988;5.854;2023-06-04T06:49:05;101753.00;;;18.30;46.37
70229;BME280;57617;51.988;5.854;2023-06-04T06:51:30;101753.34;;;18.39;46.38
70229;BME280;57617;51.988;5.854;2023-06-04T06:53:56;101760.50;;;18.45;46.71
70229;BME280;57617;51.988;5.854;2023-06-04T06:56:21;101758.59;;;18.50;46.96
70229;BME280;57617;51.988;5.854;2023-06-04T06:58:47;101757.53;;;18.56;46.51
70229;BME280;57617;51.988;5.854;2023-06-04T07:01:12;101760.56;;;18.60;46.32
70229;BME280;57617;51.988;5.854;2023-06-04T07:03:38;101763.59;;;18.63;46.59
70229;BME280;57617;51.988;5.854;2023-06-04T07:06:05;101773.81;;;18.73;46.85
70229;BME280;57617;51.988;5.854;2023-06-04T07:08:31;101769.44;;;18.77;46.08
70229;BME280;57617;51.988;5.854;2023-06-04T07:10:56;101766.41;;;18.88;45.66
70229;BME280;57617;51.988;5.854;2023-06-04T07:13:22;101767.25;;;18.94;45.70
70229;BME280;57617;51.988;5.854;2023-06-04T07:15:47;101765.91;;;19.01;45.51
70229;BME280;57617;51.988;5.854;2023-06-04T07:18:12;101774.69;;;19.03;45.66
70229;BME280;57617;51.988;5.854;2023-06-04T07:20:38;101770.31;;;19.07;45.29
70229;BME280;57617;51.988;5.854;2023-06-04T07:23:03;101771.69;;;19.15;45.64
70229;BME280;57617;51.988;5.854;2023-06-04T07:25:29;101772.28;;;19.22;45.52
70229;BME280;57617;51.988;5.854;2023-06-04T07:27:54;101775.88;;;19.27;45.07
70229;BME280;57617;51.988;5.854;2023-06-04T07:30:26;101768.72;;;19.31;44.79
70229;BME280;57617;51.988;5.854;2023-06-04T07:32:51;101772.28;;;19.32;44.75
70229;BME280;57617;51.988;5.854;2023-06-04T07:35:16;101728.47;;;19.10;44.60
70229;BME280;57617;51.988;5.854;2023-06-04T07:37:42;101772.03;;;19.43;44.54
70229;BME280;57617;51.988;5.854;2023-06-04T07:40:10;101775.63;;;19.49;44.23
70229;BME280;57617;51.988;5.854;2023-06-04T07:42:36;101781.13;;;19.54;43.78
70229;BME280;57617;51.988;5.854;2023-06-04T07:45:02;101773.41;;;19.56;43.38
70229;BME280;57617;51.988;5.854;2023-06-04T07:47:27;101779.44;;;19.63;43.64
70229;BME280;57617;51.988;5.854;2023-06-04T07:49:52;101778.06;;;19.70;43.60
70229;BME280;57617;51.988;5.854;2023-06-04T07:52:18;101777.78;;;19.82;43.31
70229;BME280;57617;51.988;5.854;2023-06-04T07:54:43;101782.75;;;19.85;43.32
70229;BME280;57617;51.988;5.854;2023-06-04T07:57:08;101777.50;;;19.88;43.41
70229;BME280;57617;51.988;5.854;2023-06-04T07:59:35;101781.03;;;19.99;43.03
70229;BME280;57617;51.988;5.854;2023-06-04T08:02:00;101774.97;;;20.07;42.65
70229;BME280;57617;51.988;5.854;2023-06-04T08:04:25;101777.19;;;20.10;42.31
70229;BME280;57617;51.988;5.854;2023-06-04T08:06:51;101780.50;;;20.12;42.11
70229;BME280;57617;51.988;5.854;2023-06-04T08:09:17;101775.22;;;20.20;41.67
70229;BME280;57617;51.988;5.854;2023-06-04T08:11:43;101783.19;;;20.32;41.62
70229;BME280;57617;51.988;5.854;2023-06-04T08:14:12;101779.84;;;20.40;41.48
70229;BME280;57617;51.988;5.854;2023-06-04T08:16:38;101782.03;;;20.48;41.31
70229;BME280;57617;51.988;5.854;2023-06-04T08:19:04;101777.84;;;20.55;41.59
70229;BME280;57617;51.988;5.854;2023-06-04T08:21:29;101788.59;;;20.62;41.36
70229;BME280;57617;51.988;5.854;2023-06-04T08:23:55;101787.19;;;20.69;40.60
70229;BME280;57617;51.988;5.854;2023-06-04T08:26:20;101778.53;;;20.81;40.46
70229;BME280;57617;51.988;5.854;2023-06-04T08:28:49;101779.88;;;20.88;39.80
70229;BME280;57617;51.988;5.854;2023-06-04T08:31:14;101788.72;;;20.95;40.01
70229;BME280;57617;51.988;5.854;2023-06-04T08:33:40;101780.41;;;21.00;39.92
70229;BME280;57617;51.988;5.854;2023-06-04T08:36:05;101785.28;;;21.13;39.54
70229;BME280;57617;51.988;5.854;2023-06-04T08:38:31;101779.16;;;21.21;38.95
70229;BME280;57617;51.988;5.854;2023-06-04T08:41:04;101780.44;;;21.34;38.54
70229;BME280;57617;51.988;5.854;2023-06-04T08:43:34;101785.34;;;21.42;38.67
70229;BME280;57617;51.988;5.854;2023-06-04T08:45:59;101782.19;;;21.53;38.72
70229;BME280;57617;51.988;5.854;2023-06-04T08:48:32;101788.75;;;21.62;38.11
70229;BME280;57617;51.988;5.854;2023-06-04T08:50:59;101788.44;;;21.74;37.89
70229;BME280;57617;51.988;5.854;2023-06-04T08:53:25;101784.97;;;21.87;37.51
70229;BME280;57617;51.988;5.854;2023-06-04T08:55:50;101778.16;;;22.03;37.28
70229;BME280;57617;51.988;5.854;2023-06-04T08:58:16;101796.78;;;22.21;36.99
70229;BME280;57617;51.988;5.854;2023-06-04T09:00:43;101786.16;;;22.28;36.38
70229;BME280;57617;51.988;5.854;2023-06-04T09:03:08;101793.75;;;22.46;35.72
70229;BME280;57617;51.988;5.854;2023-06-04T09:05:36;101798.56;;;22.59;34.85
70229;BME280;57617;51.988;5.854;2023-06-04T09:08:03;101796.94;;;22.76;34.76
70229;BME280;57617;51.988;5.854;2023-06-04T09:10:29;101796.75;;;22.91;34.87
70229;BME280;57617;51.988;5.854;2023-06-04T09:12:57;101793.97;;;23.10;34.67
70229;BME280;57617;51.988;5.854;2023-06-04T09:15:26;101791.44;;;23.32;34.42
70229;BME280;57617;51.988;5.854;2023-06-04T09:17:51;101782.53;;;23.35;34.31
70229;BME280;57617;51.988;5.854;2023-06-04T09:20:21;101788.31;;;23.52;34.00
70229;BME280;57617;51.988;5.854;2023-06-04T09:22:46;101787.56;;;23.65;33.62
70229;BME280;57617;51.988;5.854;2023-06-04T09:25:22;101785.66;;;23.79;32.44
70229;BME280;57617;51.988;5.854;2023-06-04T09:27:48;101781.03;;;23.88;32.38
70229;BME280;57617;51.988;5.854;2023-06-04T09:30:14;101783.16;;;23.96;32.31
70229;BME280;57617;51.988;5.854;2023-06-04T09:32:39;101789.53;;;24.10;31.95
70229;BME280;57617;51.988;5.854;2023-06-04T09:35:15;101785.84;;;24.14;30.85
70229;BME280;57617;51.988;5.854;2023-06-04T09:37:43;101783.06;;;24.28;31.79
70229;BME280;57617;51.988;5.854;2023-06-04T09:40:16;101779.13;;;24.42;31.66
70229;BME280;57617;51.988;5.854;2023-06-04T09:42:45;101783.16;;;24.50;31.21
70229;BME280;57617;51.988;5.854;2023-06-04T09:45:11;101785.53;;;24.56;30.57
70229;BME280;57617;51.988;5.854;2023-06-04T09:47:43;101768.53;;;24.58;29.71
70229;BME280;57617;51.988;5.854;2023-06-04T09:50:10;101791.09;;;24.70;30.42
70229;BME280;57617;51.988;5.854;2023-06-04T09:52:36;101793.03;;;24.83;29.85
70229;BME280;57617;51.988;5.854;2023-06-04T09:55:03;101783.44;;;24.89;30.03
70229;BME280;57617;51.988;5.854;2023-06-04T09:57:29;101785.16;;;24.98;29.95
70229;BME280;57617;51.988;5.854;2023-06-04T09:59:56;101779.38;;;25.08;30.15
70229;BME280;57617;51.988;5.854;2023-06-04T10:02:22;101774.16;;;25.07;29.37
70229;BME280;57617;51.988;5.854;2023-06-04T10:04:53;101789.69;;;25.08;28.40
70229;BME280;57617;51.988;5.854;2023-06-04T10:07:20;101784.63;;;25.10;28.74
70229;BME280;57617;51.988;5.854;2023-06-04T10:09:47;101780.16;;;25.22;28.97
70229;BME280;57617;51.988;5.854;2023-06-04T10:12:16;101777.78;;;25.29;28.34
70229;BME280;57617;51.988;5.854;2023-06-04T10:14:52;101781.56;;;25.33;28.75
70229;BME280;57617;51.988;5.854;2023-06-04T10:17:21;101784.22;;;25.38;28.82
70229;BME280;57617;51.988;5.854;2023-06-04T10:19:49;101780.75;;;25.55;28.79
70229;BME280;57617;51.988;5.854;2023-06-04T10:22:17;101783.47;;;25.68;28.68
70229;BME280;57617;51.988;5.854;2023-06-04T10:24:43;101771.09;;;25.83;28.69
70229;BME280;57617;51.988;5.854;2023-06-04T10:27:10;101781.78;;;25.89;28.27
70229;BME280;57617;51.988;5.854;2023-06-04T10:29:37;101773.44;;;25.89;28.47
70229;BME280;57617;51.988;5.854;2023-06-04T10:32:03;101774.28;;;25.90;28.62
70229;BME280;57617;51.988;5.854;2023-06-04T10:34:29;101785.50;;;25.98;27.70
70229;BME280;57617;51.988;5.854;2023-06-04T10:36:55;101784.66;;;25.98;28.14
70229;BME280;57617;51.988;5.854;2023-06-04T10:39:28;101782.75;;;26.07;27.58
70229;BME280;57617;51.988;5.854;2023-06-04T10:42:04;101776.41;;;26.15;27.11
70229;BME280;57617;51.988;5.854;2023-06-04T10:44:31;101771.94;;;26.14;27.94
70229;BME280;57617;51.988;5.854;2023-06-04T10:46:57;101780.22;;;26.27;28.01
70229;BME280;57617;51.988;5.854;2023-06-04T10:49:30;101778.13;;;26.41;27.65
70229;BME280;57617;51.988;5.854;2023-06-04T10:51:56;101770.78;;;26.54;27.69
70229;BME280;57617;51.988;5.854;2023-06-04T10:54:23;101781.19;;;26.62;27.78
70229;BME280;57617;51.988;5.854;2023-06-04T10:56:52;101752.56;;;26.48;27.48
70229;BME280;57617;51.988;5.854;2023-06-04T10:59:21;101777.72;;;26.65;27.36
70229;BME280;57617;51.988;5.854;2023-06-04T11:01:47;101772.69;;;26.75;27.33
70229;BME280;57617;51.988;5.854;2023-06-04T11:04:22;101770.03;;;26.70;26.15
70229;BME280;57617;51.988;5.854;2023-06-04T11:07:01;101766.25;;;26.66;27.04
70229;BME280;57617;51.988;5.854;2023-06-04T11:09:34;101760.34;;;26.68;26.97
70229;BME280;57617;51.988;5.854;2023-06-04T11:12:00;101776.78;;;26.69;27.24
70229;BME280;57617;51.988;5.854;2023-06-04T11:14:26;101775.16;;;26.77;27.27
70229;BME280;57617;51.988;5.854;2023-06-04T11:16:51;101765.00;;;26.81;27.29
70229;BME280;57617;51.988;5.854;2023-06-04T11:19:17;101762.69;;;26.83;27.28
70229;BME280;57617;51.988;5.854;2023-06-04T11:21:43;101744.31;;;26.90;27.69
70229;BME280;57617;51.988;5.854;2023-06-04T11:24:08;101766.78;;;27.02;27.21
70229;BME280;57617;51.988;5.854;2023-06-04T11:26:35;101745.78;;;27.05;26.70
70229;BME280;57617;51.988;5.854;2023-06-04T11:29:06;101762.69;;;27.08;26.04
70229;BME280;57617;51.988;5.854;2023-06-04T11:31:44;101749.72;;;27.12;26.20
70229;BME280;57617;51.988;5.854;2023-06-04T11:34:10;101746.31;;;27.15;26.41
70229;BME280;57617;51.988;5.854;2023-06-04T11:36:38;101752.06;;;27.19;26.50
70229;BME280;57617;51.988;5.854;2023-06-04T11:39:04;101749.59;;;27.17;26.21
70229;BME280;57617;51.988;5.854;2023-06-04T11:41:34;101755.00;;;27.31;26.00
70229;BME280;57617;51.988;5.854;2023-06-04T11:44:05;101754.03;;;27.44;25.73
70229;BME280;57617;51.988;5.854;2023-06-04T11:46:32;101746.13;;;27.46;25.97
70229;BME280;57617;51.988;5.854;2023-06-04T11:48:57;101741.53;;;27.50;26.02
70229;BME280;57617;51.988;5.854;2023-06-04T11:51:23;101743.50;;;27.58;26.20
70229;BME280;57617;51.988;5.854;2023-06-04T11:53:49;101738.03;;;27.70;26.15
70229;BME280;57617;51.988;5.854;2023-06-04T11:56:15;101737.84;;;27.75;25.70
70229;BME280;57617;51.988;5.854;2023-06-04T11:58:41;101733.56;;;27.77;26.07
70229;BME280;57617;51.988;5.854;2023-06-04T12:01:07;101708.16;;;27.70;26.34
70229;BME280;57617;51.988;5.854;2023-06-04T12:03:35;101733.69;;;27.98;26.14
70229;BME280;57617;51.988;5.854;2023-06-04T12:08:53;101735.31;;;28.07;24.73
70229;BME280;57617;51.988;5.854;2023-06-04T12:11:34;101737.13;;;28.03;25.14
70229;BME280;57617;51.988;5.854;2023-06-04T12:14:03;101729.13;;;27.93;24.98
70229;BME280;57617;51.988;5.854;2023-06-04T12:16:29;101731.72;;;27.98;24.84
70229;BME280;57617;51.988;5.854;2023-06-04T12:19:08;101733.41;;;27.91;23.90
70229;BME280;57617;51.988;5.854;2023-06-04T12:21:34;101729.63;;;27.87;24.98
70229;BME280;57617;51.988;5.854;2023-06-04T12:24:06;101726.16;;;27.90;24.49
70229;BME280;57617;51.988;5.854;2023-06-04T12:26:32;101721.38;;;27.90;24.95
70229;BME280;57617;51.988;5.854;2023-06-04T12:29:07;101705.47;;;27.91;24.91
70229;BME280;57617;51.988;5.854;2023-06-04T12:31:33;101722.13;;;28.08;24.87
70229;BME280;57617;51.988;5.854;2023-06-04T12:34:00;101724.75;;;28.13;24.95
70229;BME280;57617;51.988;5.854;2023-06-04T12:36:26;101717.72;;;28.07;24.44
70229;BME280;57617;51.988;5.854;2023-06-04T12:38:53;101719.25;;;27.96;24.73
70229;BME280;57617;51.988;5.854;2023-06-04T12:41:18;101720.69;;;28.02;25.09
70229;BME280;57617;51.988;5.854;2023-06-04T12:43:44;101719.84;;;28.10;24.91
70229;BME280;57617;51.988;5.854;2023-06-04T12:46:09;101728.03;;;28.15;24.68
70229;BME280;57617;51.988;5.854;2023-06-04T12:48:35;101726.41;;;28.14;24.99
70229;BME280;57617;51.988;5.854;2023-06-04T12:51:00;101708.47;;;28.15;24.38